Time;durP1;ratioP1;P1;durP2;ratioP2;P2;SDS_P1;SDS_P2;PMS_P1;PMS_P2;Temp;Humidity;BMP_temperature;BMP_pressure;BME280_temperature;BME280_humidity;BME280_pressure;Samples;Min_cycle;Max_cycle;Signal;HPM_P1;HPM_P2
2022/09/12 00:01:09;;;;;;;2.03;0.73;;;;;;;;;;5092282;28;20023;-81
2022/09/12 00:03:36;;;;;;;0.40;0.40;;;;;;;;;;5092410;28;20095;-81
2022/09/12 00:06:11;;;;;;;0.82;0.68;;;;;;;;;;5092569;28;20032;-82
2022/09/12 00:08:37;;;;;;;1.35;0.82;;;;;;;;;;5092153;28;20384;-81
2022/09/12 00:11:08;;;;;;;0.40;0.40;;;;;;;;;;5092215;28;20036;-83
2022/09/12 00:13:33;;;;;;;1.35;0.90;;;;;;;;;;5091932;28;20102;-83
2022/09/12 00:15:59;;;;;;;0.73;0.55;;;;;;;;;;5092312;28;20031;-81
2022/09/12 00:18:24;;;;;;;0.73;0.43;;;;;;;;;;5091983;28;20019;-82
2022/09/12 00:20:50;;;;;;;0.43;0.35;;;;;;;;;;5092297;28;20051;-80
2022/09/12 00:23:15;;;;;;;1.02;0.60;;;;;;;;;;5091920;28;20111;-82
2022/09/12 00:25:42;;;;;;;1.17;0.30;;;;;;;;;;5091947;28;20411;-83
2022/09/12 00:28:07;;;;;;;1.05;0.85;;;;;;;;;;5091812;28;20016;-81
2022/09/12 00:30:33;;;;;;;0.40;0.32;;;;;;;;;;5091634;28;20043;-79
2022/09/12 00:32:58;;;;;;;1.30;0.85;;;;;;;;;;5091819;28;20031;-81
2022/09/12 00:35:23;;;;;;;1.25;0.52;;;;;;;;;;5091923;28;20454;-84
2022/09/12 02:04:19;;;;;;;0.20;0.20;;;;;;;;;;5105456;27;20157;-81
2022/09/12 02:07:15;;;;;;;0.80;0.50;;;;;;;;;;5087817;28;20040;-81
2022/09/12 02:09:46;;;;;;;0.77;0.40;;;;;;;;;;5085630;28;20518;-82
2022/09/12 02:12:16;;;;;;;2.47;0.60;;;;;;;;;;5088253;28;20425;-80
2022/09/12 02:14:50;;;;;;;0.50;0.40;;;;;;;;;;5088571;28;20039;-80
2022/09/12 02:17:20;;;;;;;0.90;0.50;;;;;;;;;;5087961;28;20036;-83
2022/09/12 02:19:51;;;;;;;0.57;0.40;;;;;;;;;;5089872;28;20382;-81
2022/09/12 02:22:20;;;;;;;1.15;0.85;;;;;;;;;;5087965;28;20028;-83
2022/09/12 02:24:51;;;;;;;0.10;0.10;;;;;;;;;;5090117;28;20368;-81
2022/09/12 02:27:23;;;;;;;0.38;0.38;;;;;;;;;;5078813;28;20024;-82
2022/09/12 02:29:49;;;;;;;0.22;0.20;;;;;;;;;;5090039;28;20036;-81
2022/09/12 02:32:17;;;;;;;0.40;0.22;;;;;;;;;;5089988;28;20028;-83
2022/09/12 02:35:20;;;;;;;0.22;0.20;;;;;;;;;;5087627;28;20033;-81
2022/09/12 02:38:06;;;;;;;0.32;0.32;;;;;;;;;;5084787;28;20422;-81
2022/09/12 02:40:32;;;;;;;0.32;0.32;;;;;;;;;;5083824;28;20024;-82
2022/09/12 02:42:59;;;;;;;0.40;0.35;;;;;;;;;;5090278;28;20097;-82
2022/09/12 02:45:25;;;;;;;0.30;0.30;;;;;;;;;;5090389;28;20515;-81
2022/09/12 02:48:04;;;;;;;0.70;0.43;;;;;;;;;;5089733;28;20064;-81
2022/09/12 02:50:31;;;;;;;0.30;0.30;;;;;;;;;;5082740;28;20459;-81
2022/09/12 02:53:03;;;;;;;0.52;0.38;;;;;;;;;;5089223;28;20082;-81
2022/09/12 02:55:30;;;;;;;0.28;0.28;;;;;;;;;;5087484;28;20032;-82
2022/09/12 02:57:56;;;;;;;0.20;0.20;;;;;;;;;;5088323;28;20020;-82
2022/09/12 03:00:22;;;;;;;0.40;0.40;;;;;;;;;;5088394;28;20054;-82
2022/09/12 03:03:03;;;;;;;0.30;0.30;;;;;;;;;;5085475;28;20091;-81
2022/09/12 03:05:36;;;;;;;2.20;0.80;;;;;;;;;;5077326;28;20115;-83
2022/09/12 03:08:14;;;;;;;0.45;0.45;;;;;;;;;;5074139;28;20024;-82
2022/09/12 03:10:57;;;;;;;0.50;0.50;;;;;;;;;;5078315;28;20032;-81
2022/09/12 03:13:37;;;;;;;0.57;0.57;;;;;;;;;;5070176;28;20402;-83
2022/09/12 03:16:12;;;;;;;;;;;;;;;;;;5076490;28;20024;-82
2022/09/12 03:18:58;;;;;;;0.73;0.63;;;;;;;;;;5073751;28;19916;-82
2022/09/12 03:21:41;;;;;;;0.40;0.40;;;;;;;;;;5071097;28;20399;-82
2022/09/12 03:24:19;;;;;;;1.25;0.90;;;;;;;;;;5069758;28;20024;-83
2022/09/12 03:27:07;;;;;;;1.23;0.80;;;;;;;;;;5075051;28;20488;-82
2022/09/12 03:29:35;;;;;;;0.50;0.45;;;;;;;;;;5044612;28;20036;-81
2022/09/12 03:32:01;;;;;;;0.90;0.65;;;;;;;;;;5076158;28;20023;-81
2022/09/12 03:34:27;;;;;;;0.90;0.75;;;;;;;;;;5074144;28;20032;-81
2022/09/12 03:36:57;;;;;;;0.98;0.70;;;;;;;;;;5072891;28;20043;-82
2022/09/12 03:39:25;;;;;;;0.73;0.70;;;;;;;;;;5076156;28;20166;-81
2022/09/12 03:41:50;;;;;;;0.60;0.50;;;;;;;;;;5074660;28;20033;-83
2022/09/12 03:44:16;;;;;;;0.77;0.50;;;;;;;;;;5073055;28;20036;-81
2022/09/12 03:46:42;;;;;;;1.15;1.05;;;;;;;;;;5073924;28;20455;-81
2022/09/12 03:49:07;;;;;;;0.75;0.75;;;;;;;;;;5071516;28;20039;-82
2022/09/12 03:51:33;;;;;;;0.80;0.70;;;;;;;;;;5074756;28;20023;-82
2022/09/12 03:53:58;;;;;;;0.75;0.75;;;;;;;;;;5075832;28;20025;-82
2022/09/12 03:56:24;;;;;;;0.98;0.98;;;;;;;;;;5074000;28;20468;-82
2022/09/12 03:58:49;;;;;;;1.50;0.90;;;;;;;;;;5070750;28;20111;-82
2022/09/12 04:01:17;;;;;;;1.02;0.73;;;;;;;;;;5073248;28;20036;-82
2022/09/12 04:03:45;;;;;;;0.80;0.80;;;;;;;;;;5072846;28;20044;-82
2022/09/12 04:06:14;;;;;;;1.33;0.85;;;;;;;;;;5075160;28;20527;-81
2022/09/12 04:08:41;;;;;;;2.03;1.27;;;;;;;;;;5072795;28;20115;-81
2022/09/12 04:11:12;;;;;;;2.78;1.50;;;;;;;;;;5076377;28;20024;-82
2022/09/12 04:13:39;;;;;;;3.05;1.70;;;;;;;;;;5075392;28;20103;-83
2022/09/12 04:16:05;;;;;;;1.40;1.02;;;;;;;;;;5072908;28;20099;-82
2022/09/12 04:18:31;;;;;;;1.73;1.40;;;;;;;;;;5072302;28;20028;-81
2022/09/12 04:20:56;;;;;;;1.35;1.10;;;;;;;;;;5067461;28;20066;-81
2022/09/12 04:23:22;;;;;;;4.32;1.45;;;;;;;;;;5067762;28;20040;-82
2022/09/12 04:25:55;;;;;;;2.25;1.40;;;;;;;;;;5072290;28;20063;-82
2022/09/12 04:28:20;;;;;;;1.33;1.10;;;;;;;;;;5074955;28;20486;-82
2022/09/12 04:30:46;;;;;;;1.33;1.10;;;;;;;;;;5076058;28;20111;-83
2022/09/12 04:33:11;;;;;;;1.77;1.42;;;;;;;;;;5074677;28;20467;-84
2022/09/12 04:35:37;;;;;;;1.92;1.48;;;;;;;;;;5073181;28;20067;-81
2022/09/12 04:38:02;;;;;;;1.98;1.60;;;;;;;;;;5075340;28;20058;-83
2022/09/12 04:40:29;;;;;;;1.35;1.25;;;;;;;;;;5069045;28;20035;-81
2022/09/12 04:42:54;;;;;;;2.58;1.98;;;;;;;;;;5069965;28;20036;-82
2022/09/12 04:45:21;;;;;;;0.85;0.80;;;;;;;;;;5071651;28;20471;-81
2022/09/12 04:47:46;;;;;;;1.77;1.13;;;;;;;;;;5072263;28;20417;-82
2022/09/12 04:50:11;;;;;;;1.92;1.58;;;;;;;;;;5073238;28;20246;-80
2022/09/12 04:52:37;;;;;;;2.70;1.85;;;;;;;;;;5072037;28;20376;-84
2022/09/12 04:55:03;;;;;;;2.05;1.10;;;;;;;;;;5076890;28;20103;-82
2022/09/12 04:57:28;;;;;;;2.90;1.45;;;;;;;;;;5071501;28;20055;-82
2022/09/12 04:59:53;;;;;;;1.58;1.23;;;;;;;;;;5073498;28;20034;-83
2022/09/12 05:02:19;;;;;;;2.70;1.70;;;;;;;;;;5073592;28;20045;-81
2022/09/12 05:04:45;;;;;;;1.85;1.40;;;;;;;;;;5075663;28;20490;-82
2022/09/12 05:07:11;;;;;;;1.38;1.27;;;;;;;;;;5071478;28;20024;-82
2022/09/12 05:09:36;;;;;;;1.40;1.27;;;;;;;;;;5072871;28;20483;-83
2022/09/12 05:12:03;;;;;;;1.98;1.33;;;;;;;;;;5072999;28;20024;-82
2022/09/12 05:14:31;;;;;;;2.83;1.10;;;;;;;;;;5074267;28;20085;-83
2022/09/12 05:16:59;;;;;;;2.15;1.42;;;;;;;;;;5073406;28;20103;-88
2022/09/12 05:19:25;;;;;;;1.15;0.90;;;;;;;;;;5072433;28;20031;-80
2022/09/12 05:21:50;;;;;;;2.50;2.00;;;;;;;;;;5065977;28;20025;-82
2022/09/12 05:24:16;;;;;;;1.85;1.30;;;;;;;;;;5073850;28;20360;-80
2022/09/12 05:26:41;;;;;;;1.33;1.10;;;;;;;;;;5073434;28;20035;-80
2022/09/12 05:29:06;;;;;;;1.83;1.38;;;;;;;;;;5070230;28;20036;-82
2022/09/12 05:31:33;;;;;;;2.55;1.70;;;;;;;;;;5069471;28;20032;-82
2022/09/12 05:33:59;;;;;;;1.33;1.05;;;;;;;;;;5071293;28;20028;-80
2022/09/12 05:36:29;;;;;;;1.35;1.25;;;;;;;;;;5073950;28;20479;-81
2022/09/12 05:38:55;;;;;;;1.67;1.35;;;;;;;;;;5072045;28;20028;-80
2022/09/12 05:41:23;;;;;;;1.50;1.20;;;;;;;;;;5073958;28;20544;-81
2022/09/12 05:43:54;;;;;;;1.17;1.02;;;;;;;;;;5071996;28;20119;-81
2022/09/12 05:46:22;;;;;;;1.80;1.55;;;;;;;;;;5071270;28;20574;-81
2022/09/12 05:48:49;;;;;;;1.10;1.00;;;;;;;;;;5074797;28;20091;-84
2022/09/12 05:51:18;;;;;;;1.92;1.73;;;;;;;;;;5068436;28;20122;-83
2022/09/12 05:53:45;;;;;;;1.70;1.53;;;;;;;;;;5073326;28;20587;-81
2022/09/12 05:56:13;;;;;;;1.45;1.08;;;;;;;;;;5071128;28;20025;-81
2022/09/12 05:58:41;;;;;;;2.17;1.30;;;;;;;;;;5073509;28;20036;-82
2022/09/12 06:01:10;;;;;;;1.50;1.27;;;;;;;;;;5073478;28;20020;-83
2022/09/12 06:03:39;;;;;;;1.55;1.20;;;;;;;;;;5073907;28;20496;-83
2022/09/12 06:06:06;;;;;;;2.35;1.75;;;;;;;;;;5062017;28;20468;-81
2022/09/12 06:08:33;;;;;;;1.23;1.00;;;;;;;;;;5073905;28;20029;-83
2022/09/12 06:11:01;;;;;;;1.27;1.10;;;;;;;;;;5069649;28;20036;-82
2022/09/12 06:13:27;;;;;;;1.90;0.82;;;;;;;;;;5071042;28;20029;-82
2022/09/12 06:15:53;;;;;;;1.77;1.50;;;;;;;;;;5070932;28;20114;-81
2022/09/12 06:18:19;;;;;;;1.42;1.20;;;;;;;;;;5071916;28;20028;-81
2022/09/12 06:20:45;;;;;;;1.70;1.33;;;;;;;;;;5070512;28;20519;-81
2022/09/12 06:23:11;;;;;;;1.75;1.08;;;;;;;;;;5069184;28;20032;-85
2022/09/12 06:25:37;;;;;;;2.13;1.33;;;;;;;;;;5075609;28;20070;-81
2022/09/12 06:28:03;;;;;;;1.52;1.10;;;;;;;;;;5071183;28;20025;-81
2022/09/12 06:30:28;;;;;;;2.30;1.73;;;;;;;;;;5073660;28;20036;-82
2022/09/12 06:32:55;;;;;;;1.50;1.27;;;;;;;;;;5071058;28;20106;-82
2022/09/12 06:35:22;;;;;;;1.15;1.02;;;;;;;;;;5071090;28;20021;-86
2022/09/12 06:37:47;;;;;;;2.35;1.60;;;;;;;;;;5072562;28;20020;-82
2022/09/12 06:40:13;;;;;;;2.45;1.27;;;;;;;;;;5075231;28;20086;-81
2022/09/12 06:42:38;;;;;;;1.83;1.27;;;;;;;;;;5072915;28;20529;-81
2022/09/12 06:45:04;;;;;;;1.00;0.90;;;;;;;;;;5072752;28;20067;-84
2022/09/12 06:47:29;;;;;;;2.20;1.90;;;;;;;;;;5078299;28;20460;-81
2022/09/12 06:49:55;;;;;;;2.08;1.52;;;;;;;;;;5077035;28;20099;-80
2022/09/12 06:52:20;;;;;;;1.80;1.27;;;;;;;;;;5078736;28;20466;-82
2022/09/12 06:54:46;;;;;;;1.10;1.00;;;;;;;;;;5075551;28;20070;-81
2022/09/12 06:57:11;;;;;;;1.73;1.45;;;;;;;;;;5075826;28;20032;-83
2022/09/12 06:59:37;;;;;;;1.98;1.52;;;;;;;;;;5074843;28;20031;-80
2022/09/12 07:02:02;;;;;;;2.33;1.35;;;;;;;;;;5070990;28;20155;-80
2022/09/12 07:04:28;;;;;;;1.52;1.30;;;;;;;;;;5073297;28;20380;-82
2022/09/12 07:06:53;;;;;;;1.08;0.90;;;;;;;;;;5077748;28;20051;-82
2022/09/12 07:09:19;;;;;;;1.40;1.20;;;;;;;;;;5075286;28;20036;-83
2022/09/12 07:11:45;;;;;;;1.85;1.40;;;;;;;;;;5076042;28;20156;-83
2022/09/12 07:14:12;;;;;;;1.33;1.20;;;;;;;;;;5070159;28;20107;-81
2022/09/12 07:16:38;;;;;;;2.00;1.42;;;;;;;;;;5073515;28;20384;-82
2022/09/12 07:19:06;;;;;;;5.00;3.25;;;;;;;;;;5073847;28;20024;-81
2022/09/12 07:21:35;;;;;;;1.58;1.00;;;;;;;;;;5073487;28;20476;-81
2022/09/12 07:24:00;;;;;;;1.27;1.08;;;;;;;;;;5079646;28;20053;-83
2022/09/12 07:26:27;;;;;;;2.22;1.25;;;;;;;;;;5078101;28;20035;-81
2022/09/12 07:28:54;;;;;;;1.65;1.27;;;;;;;;;;5072119;28;20110;-81
2022/09/12 07:31:22;;;;;;;1.58;1.40;;;;;;;;;;5074375;28;20036;-81
2022/09/12 07:33:49;;;;;;;2.40;1.27;;;;;;;;;;5076363;28;20028;-84
2022/09/12 07:36:16;;;;;;;2.85;1.77;;;;;;;;;;5072438;28;20028;-82
2022/09/12 07:38:42;;;;;;;1.42;1.23;;;;;;;;;;5074568;28;20059;-81
2022/09/12 07:41:19;;;;;;;2.15;1.27;;;;;;;;;;5071315;28;20456;-82
2022/09/12 07:43:46;;;;;;;2.45;1.70;;;;;;;;;;5073190;28;20032;-82
2022/09/12 07:46:13;;;;;;;1.98;1.52;;;;;;;;;;5075654;28;20046;-83
2022/09/12 07:48:39;;;;;;;1.60;1.25;;;;;;;;;;5077759;28;20024;-82
2022/09/12 07:51:07;;;;;;;1.85;1.42;;;;;;;;;;5073272;28;20047;-80
2022/09/12 07:53:39;;;;;;;1.83;1.20;;;;;;;;;;5075507;28;20029;-84
2022/09/12 07:56:06;;;;;;;1.50;1.25;;;;;;;;;;5076618;28;20060;-82
2022/09/12 07:58:33;;;;;;;1.73;1.20;;;;;;;;;;5075743;28;20023;-80
2022/09/12 08:01:12;;;;;;;2.35;1.60;;;;;;;;;;5074833;28;20032;-82
2022/09/12 08:03:42;;;;;;;2.07;1.40;;;;;;;;;;5076524;28;20044;-81
2022/09/12 08:06:12;;;;;;;2.20;1.70;;;;;;;;;;5073859;28;20288;-83
2022/09/12 08:08:39;;;;;;;1.50;1.17;;;;;;;;;;5074274;28;20060;-84
2022/09/12 08:11:07;;;;;;;2.28;1.65;;;;;;;;;;5074926;28;20114;-82
2022/09/12 08:13:35;;;;;;;1.58;1.13;;;;;;;;;;5072689;28;20035;-83
2022/09/12 08:16:04;;;;;;;1.58;1.10;;;;;;;;;;5072371;28;20055;-82
2022/09/12 08:18:31;;;;;;;1.35;0.80;;;;;;;;;;5068649;28;20028;-83
2022/09/12 08:21:05;;;;;;;1.48;1.13;;;;;;;;;;5073099;28;20059;-82
2022/09/12 08:23:31;;;;;;;1.30;0.80;;;;;;;;;;5075042;28;20025;-82
2022/09/12 08:25:58;;;;;;;1.00;0.88;;;;;;;;;;5071090;28;20051;-82
2022/09/12 08:28:24;;;;;;;1.17;1.08;;;;;;;;;;5074811;28;20078;-82
2022/09/12 08:30:50;;;;;;;0.95;0.60;;;;;;;;;;5073332;28;20104;-80
2022/09/12 08:33:15;;;;;;;0.57;0.57;;;;;;;;;;5074139;28;20088;-84
2022/09/12 08:35:41;;;;;;;1.08;0.98;;;;;;;;;;5070523;28;20064;-83
2022/09/12 08:38:06;;;;;;;0.73;0.60;;;;;;;;;;5071914;28;20049;-82
2022/09/12 08:40:42;;;;;;;1.05;0.82;;;;;;;;;;5073043;28;20025;-82
2022/09/12 08:43:51;;;;;;;0.60;0.60;;;;;;;;;;5071875;28;20071;-82
2022/09/12 08:46:22;;;;;;;1.98;1.17;;;;;;;;;;5035645;28;20079;-84
2022/09/12 08:48:48;;;;;;;8.30;1.67;;;;;;;;;;5074510;28;20107;-80
2022/09/12 08:51:17;;;;;;;1.95;1.27;;;;;;;;;;5071251;28;20155;-81
2022/09/12 08:53:43;;;;;;;0.75;0.65;;;;;;;;;;5073922;28;20051;-82
2022/09/12 08:56:10;;;;;;;1.25;0.90;;;;;;;;;;5072433;28;20024;-84
2022/09/12 08:58:42;;;;;;;0.80;0.60;;;;;;;;;;5071979;28;20388;-82
2022/09/12 09:01:30;;;;;;;0.80;0.80;;;;;;;;;;5071246;28;20029;-82
2022/09/12 09:04:19;;;;;;;2.15;1.10;;;;;;;;;;5067812;28;20072;-83
2022/09/12 09:07:00;;;;;;;1.75;1.23;;;;;;;;;;5068666;28;20032;-83
2022/09/12 09:09:41;;;;;;;1.80;1.10;;;;;;;;;;5087505;28;20028;-82
2022/09/12 09:12:28;;;;;;;1.70;1.27;;;;;;;;;;5070179;28;20108;-83
2022/09/12 09:15:04;;;;;;;1.48;1.05;;;;;;;;;;5067516;28;20035;-84
2022/09/12 09:17:43;;;;;;;1.58;1.25;;;;;;;;;;5070894;28;20430;-84
2022/09/12 09:20:27;;;;;;;2.50;1.88;;;;;;;;;;5071917;28;20383;-84
2022/09/12 09:23:00;;;;;;;1.95;1.27;;;;;;;;;;5074796;28;20383;-83
2022/09/12 09:25:55;;;;;;;1.67;1.25;;;;;;;;;;5069584;28;20032;-84
2022/09/12 09:28:29;;;;;;;1.20;1.10;;;;;;;;;;5071878;28;20114;-83
2022/09/12 09:30:55;;;;;;;1.70;1.35;;;;;;;;;;5072725;28;20036;-82
2022/09/12 09:33:25;;;;;;;1.40;1.10;;;;;;;;;;5072150;28;20383;-82
2022/09/12 09:35:55;;;;;;;;;;;;;;;;;;5072149;28;20017;-82
2022/09/12 09:38:54;;;;;;;1.88;1.48;;;;;;;;;;5086297;28;19912;-83
2022/09/12 09:41:40;;;;;;;2.30;1.52;;;;;;;;;;5070131;28;20036;-82
2022/09/12 09:44:06;;;;;;;2.75;1.48;;;;;;;;;;5072997;28;20024;-83
2022/09/12 09:46:32;;;;;;;2.13;1.48;;;;;;;;;;5076947;28;20032;-82
2022/09/12 09:49:02;;;;;;;2.55;1.25;;;;;;;;;;5073679;28;20021;-81
2022/09/12 09:51:33;;;;;;;3.05;1.83;;;;;;;;;;5076242;28;20027;-82
2022/09/12 09:54:13;;;;;;;1.67;1.13;;;;;;;;;;5073130;28;20032;-83
2022/09/12 09:56:41;;;;;;;1.73;1.27;;;;;;;;;;5074002;28;20103;-82
2022/09/12 09:59:10;;;;;;;1.17;0.95;;;;;;;;;;5072492;28;20026;-84
2022/09/12 10:01:38;;;;;;;1.55;1.30;;;;;;;;;;5072500;28;20052;-82
2022/09/12 10:04:04;;;;;;;2.38;1.60;;;;;;;;;;5071131;28;20099;-83
2022/09/12 10:06:33;;;;;;;2.08;1.35;;;;;;;;;;5071363;28;20108;-83
2022/09/12 10:09:18;;;;;;;1.50;1.30;;;;;;;;;;5074655;28;20028;-85
2022/09/12 10:11:44;;;;;;;1.65;1.30;;;;;;;;;;5056222;28;20494;-85
2022/09/12 10:14:26;;;;;;;3.88;1.42;;;;;;;;;;5068858;28;20082;-83
2022/09/12 10:16:52;;;;;;;1.52;1.17;;;;;;;;;;5081601;28;20548;-85
2022/09/12 10:19:26;;;;;;;2.10;1.23;;;;;;;;;;5078712;28;20111;-82
2022/09/12 10:21:54;;;;;;;2.08;1.30;;;;;;;;;;5079941;28;20436;-83
2022/09/12 10:24:25;;;;;;;3.80;1.15;;;;;;;;;;5077165;28;20028;-82
2022/09/12 10:27:43;;;;;;;4.03;2.05;;;;;;;;;;5074507;28;20048;-84
2022/09/12 10:30:20;;;;;;;1.20;1.00;;;;;;;;;;5067076;28;20119;-83
2022/09/12 10:32:52;;;;;;;1.67;0.88;;;;;;;;;;5076571;28;20542;-81
2022/09/12 10:35:32;;;;;;;1.27;0.93;;;;;;;;;;5076111;28;20028;-83
2022/09/12 10:38:05;;;;;;;2.33;1.33;;;;;;;;;;5074497;28;20021;-82
2022/09/12 10:40:37;;;;;;;1.42;1.30;;;;;;;;;;5072593;28;20094;-83
2022/09/12 10:43:16;;;;;;;2.05;1.55;;;;;;;;;;5081672;28;20055;-81
2022/09/12 10:45:41;;;;;;;3.70;1.88;;;;;;;;;;5076842;28;20036;-84
2022/09/12 10:48:31;;;;;;;2.22;1.80;;;;;;;;;;5082490;28;20032;-85
2022/09/12 10:50:58;;;;;;;2.15;1.50;;;;;;;;;;5070332;28;20135;-85
2022/09/12 10:53:25;;;;;;;2.30;1.60;;;;;;;;;;5077624;28;20463;-82
2022/09/12 10:56:08;;;;;;;2.67;1.88;;;;;;;;;;5073683;28;20543;-82
2022/09/12 10:59:04;;;;;;;2.88;1.40;;;;;;;;;;5075424;28;20492;-81
2022/09/12 11:01:44;;;;;;;1.75;1.25;;;;;;;;;;5070280;28;20039;-84
2022/09/12 11:04:16;;;;;;;2.13;1.63;;;;;;;;;;5091435;28;20484;-84
2022/09/12 11:06:55;;;;;;;1.90;1.33;;;;;;;;;;5074098;28;20362;-82
2022/09/12 11:09:31;;;;;;;2.08;1.17;;;;;;;;;;5073418;28;20506;-85
2022/09/12 11:12:10;;;;;;;3.00;1.50;;;;;;;;;;5073434;28;20066;-81
2022/09/12 11:15:02;;;;;;;1.02;0.90;;;;;;;;;;5069300;28;20029;-83
2022/09/12 11:17:53;;;;;;;1.60;1.00;;;;;;;;;;5090042;28;20476;-84
2022/09/12 11:20:24;;;;;;;1.95;1.20;;;;;;;;;;5073251;28;20043;-83
2022/09/12 11:23:13;;;;;;;2.60;1.80;;;;;;;;;;5077720;28;20064;-83
2022/09/12 11:25:55;;;;;;;1.17;1.00;;;;;;;;;;5073655;28;20073;-84
2022/09/12 11:28:33;;;;;;;2.00;1.27;;;;;;;;;;5074299;28;20028;-83
2022/09/12 11:31:17;;;;;;;2.55;1.70;;;;;;;;;;5072976;28;20056;-83
2022/09/12 11:33:49;;;;;;;2.47;1.83;;;;;;;;;;5083456;28;20460;-84
2022/09/12 11:36:42;;;;;;;2.10;1.65;;;;;;;;;;5074657;28;20039;-82
2022/09/12 11:39:14;;;;;;;2.55;1.55;;;;;;;;;;5071320;28;20062;-82
2022/09/12 11:41:47;;;;;;;1.80;1.42;;;;;;;;;;5067951;28;20055;-83
2022/09/12 11:44:24;;;;;;;2.35;1.73;;;;;;;;;;5075678;28;20051;-85
2022/09/12 11:46:49;;;;;;;2.33;1.45;;;;;;;;;;5070572;28;20060;-84
2022/09/12 11:49:23;;;;;;;2.85;2.08;;;;;;;;;;5072060;28;20090;-84
2022/09/12 11:52:23;;;;;;;2.15;1.58;;;;;;;;;;5069070;28;20059;-82
2022/09/12 11:55:04;;;;;;;1.77;1.23;;;;;;;;;;5069808;28;20025;-83
2022/09/12 11:57:29;;;;;;;3.00;1.85;;;;;;;;;;5073426;28;20062;-82
2022/09/12 12:00:01;;;;;;;3.33;1.58;;;;;;;;;;5073185;28;20025;-81
2022/09/12 12:02:58;;;;;;;2.53;1.85;;;;;;;;;;5074547;28;20044;-81
2022/09/12 12:05:42;;;;;;;2.55;1.73;;;;;;;;;;5047386;28;20052;-85
2022/09/12 12:08:09;;;;;;;2.17;1.55;;;;;;;;;;5068244;28;20058;-83
2022/09/12 12:10:43;;;;;;;1.13;1.05;;;;;;;;;;5073518;28;20047;-82
2022/09/12 12:13:31;;;;;;;1.45;1.00;;;;;;;;;;5072967;28;20028;-81
2022/09/12 12:16:21;;;;;;;1.35;1.15;;;;;;;;;;5080603;28;20102;-82
2022/09/12 12:18:52;;;;;;;;;;;;;;;;;;5083919;28;20024;-81
2022/09/12 12:21:20;;;;;;;1.48;1.10;;;;;;;;;;5070452;28;19958;-80
2022/09/12 12:24:01;;;;;;;1.23;1.10;;;;;;;;;;5073528;28;20127;-81
2022/09/12 12:26:42;;;;;;;1.80;1.20;;;;;;;;;;5074098;28;20486;-83
2022/09/12 12:29:18;;;;;;;1.42;1.10;;;;;;;;;;5072477;28;20035;-83
2022/09/12 12:32:00;;;;;;;1.55;1.33;;;;;;;;;;5072172;28;20029;-84
2022/09/12 12:34:47;;;;;;;2.85;1.30;;;;;;;;;;5072081;28;20055;-84
2022/09/12 12:37:18;;;;;;;1.92;1.40;;;;;;;;;;5071574;28;20418;-85
2022/09/12 12:39:44;;;;;;;2.30;1.38;;;;;;;;;;5075699;28;20043;-84
2022/09/12 12:42:35;;;;;;;1.40;0.80;;;;;;;;;;5073748;28;20032;-83
2022/09/12 12:45:16;;;;;;;1.90;1.33;;;;;;;;;;5067899;28;20487;-82
2022/09/12 12:47:46;;;;;;;1.00;0.77;;;;;;;;;;5072576;28;20055;-85
2022/09/12 12:50:15;;;;;;;1.98;1.17;;;;;;;;;;5072537;28;20070;-81
2022/09/12 12:52:46;;;;;;;1.08;0.90;;;;;;;;;;5073435;28;20147;-82
2022/09/12 12:55:25;;;;;;;1.13;1.00;;;;;;;;;;5070734;28;20366;-83
2022/09/12 12:57:53;;;;;;;1.50;1.30;;;;;;;;;;5072755;28;20476;-83
2022/09/12 13:00:25;;;;;;;1.20;1.10;;;;;;;;;;5070553;28;20030;-80
2022/09/12 13:02:57;;;;;;;1.63;1.40;;;;;;;;;;5070976;28;20424;-81
2022/09/12 13:05:26;;;;;;;2.50;1.30;;;;;;;;;;5070851;28;20873;-81
2022/09/12 13:08:04;;;;;;;2.05;1.33;;;;;;;;;;5072203;28;20082;-82
2022/09/12 13:10:30;;;;;;;1.15;1.05;;;;;;;;;;5069986;28;20561;-85
2022/09/12 13:13:04;;;;;;;0.90;0.90;;;;;;;;;;5075325;28;20786;-81
2022/09/12 13:15:35;;;;;;;1.48;1.33;;;;;;;;;;5077731;28;20036;-85
2022/09/12 13:18:06;;;;;;;1.60;1.38;;;;;;;;;;5074137;28;20032;-82
2022/09/12 13:20:36;;;;;;;1.90;1.50;;;;;;;;;;5076277;28;20071;-81
2022/09/12 13:23:02;;;;;;;1.52;1.38;;;;;;;;;;5073928;28;20108;-83
2022/09/12 13:25:33;;;;;;;1.67;1.15;;;;;;;;;;5087519;28;20120;-82
2022/09/12 13:28:10;;;;;;;1.50;1.30;;;;;;;;;;5072537;28;20024;-81
2022/09/12 13:30:40;;;;;;;1.40;1.10;;;;;;;;;;5072965;28;20078;-82
2022/09/12 13:33:29;;;;;;;1.05;0.95;;;;;;;;;;5071624;28;20024;-82
2022/09/12 13:36:02;;;;;;;1.20;1.00;;;;;;;;;;5063854;28;20487;-82
2022/09/12 13:38:46;;;;;;;2.50;1.70;;;;;;;;;;5071804;28;20029;-81
2022/09/12 13:41:17;;;;;;;1.42;1.30;;;;;;;;;;5086460;28;20028;-82
2022/09/12 13:43:45;;;;;;;1.27;1.15;;;;;;;;;;5072683;28;20024;-81
2022/09/12 13:46:16;;;;;;;3.65;1.40;;;;;;;;;;5071925;28;20033;-84
2022/09/12 13:48:43;;;;;;;2.92;2.15;;;;;;;;;;5070679;28;20028;-82
2022/09/12 13:51:21;;;;;;;2.67;1.83;;;;;;;;;;5071565;28;20032;-81
2022/09/12 13:53:47;;;;;;;2.75;1.92;;;;;;;;;;5070973;28;20028;-84
2022/09/12 13:56:19;;;;;;;2.20;1.48;;;;;;;;;;5072165;28;20035;-81
2022/09/12 13:59:01;;;;;;;3.75;1.20;;;;;;;;;;5068605;28;20036;-81
2022/09/12 14:01:42;;;;;;;1.83;1.25;;;;;;;;;;5066040;28;20492;-83
2022/09/12 14:07:23;;;;;;;2.20;1.50;;;;;;;;;;5071058;28;20032;-82
2022/09/12 14:09:54;;;;;;;1.45;1.05;;;;;;;;;;5070919;28;20033;-83
2022/09/12 14:12:36;;;;;;;2.78;1.83;;;;;;;;;;5072452;28;20055;-83
2022/09/12 14:15:01;;;;;;;1.95;1.33;;;;;;;;;;5071191;28;20024;-82
2022/09/12 14:17:35;;;;;;;2.80;1.98;;;;;;;;;;5075025;28;20074;-81
2022/09/12 14:20:04;;;;;;;3.05;1.77;;;;;;;;;;5071474;28;20081;-82
2022/09/12 14:22:31;;;;;;;2.53;1.73;;;;;;;;;;5073572;28;20502;-83
2022/09/12 14:24:58;;;;;;;2.05;1.70;;;;;;;;;;5071286;28;20111;-82
2022/09/12 14:27:27;;;;;;;2.53;1.58;;;;;;;;;;5070355;28;20429;-83
2022/09/12 14:30:01;;;;;;;1.73;1.52;;;;;;;;;;5070708;28;20124;-84
2022/09/12 14:32:27;;;;;;;1.67;1.45;;;;;;;;;;5069783;28;20602;-84
2022/09/12 14:35:10;;;;;;;2.10;1.70;;;;;;;;;;5070414;28;20541;-83
2022/09/12 14:37:37;;;;;;;2.22;1.63;;;;;;;;;;5065799;28;20473;-83
2022/09/12 14:40:14;;;;;;;2.45;1.83;;;;;;;;;;5074650;28;20468;-82
2022/09/12 14:42:41;;;;;;;1.63;1.40;;;;;;;;;;5067129;28;20074;-83
2022/09/12 14:45:30;;;;;;;1.83;1.52;;;;;;;;;;5073948;28;20678;-83
2022/09/12 14:47:57;;;;;;;2.60;1.77;;;;;;;;;;5071084;28;20056;-82
2022/09/12 14:50:28;;;;;;;1.73;1.52;;;;;;;;;;5071696;28;21390;-82
2022/09/12 14:53:20;;;;;;;1.95;1.58;;;;;;;;;;5072287;28;20024;-83
2022/09/12 14:55:54;;;;;;;1.63;1.42;;;;;;;;;;5067893;28;20063;-82
2022/09/12 14:58:19;;;;;;;1.80;1.60;;;;;;;;;;5068879;28;20078;-82
2022/09/12 15:01:00;;;;;;;1.50;1.30;;;;;;;;;;5073320;28;20418;-81
2022/09/12 15:03:32;;;;;;;2.17;1.42;;;;;;;;;;5073874;28;20044;-85
2022/09/12 15:05:59;;;;;;;1.83;1.38;;;;;;;;;;5068462;28;20059;-83
2022/09/12 15:08:25;;;;;;;1.00;0.88;;;;;;;;;;5074176;28;20388;-82
2022/09/12 15:10:51;;;;;;;1.70;1.40;;;;;;;;;;5073638;28;20028;-83
2022/09/12 15:13:22;;;;;;;1.98;1.42;;;;;;;;;;5075091;28;20079;-81
2022/09/12 15:15:58;;;;;;;1.65;1.30;;;;;;;;;;5073856;28;20119;-85
2022/09/12 15:18:26;;;;;;;1.98;1.48;;;;;;;;;;5074735;28;20032;-84
2022/09/12 15:20:59;;;;;;;2.03;1.63;;;;;;;;;;5076796;28;20055;-84
2022/09/12 15:23:27;;;;;;;3.17;1.20;;;;;;;;;;5071485;28;20058;-83
2022/09/12 15:25:53;;;;;;;1.50;1.30;;;;;;;;;;5089161;28;20073;-81
2022/09/12 15:28:21;;;;;;;1.67;1.20;;;;;;;;;;5074696;28;20024;-83
2022/09/12 15:30:51;;;;;;;2.22;1.85;;;;;;;;;;5074367;28;20491;-82
2022/09/12 15:33:21;;;;;;;;;;;;;;;;;;5073116;28;20113;-82
2022/09/12 15:35:47;;;;;;;1.90;1.35;;;;;;;;;;5075929;28;19916;-81
2022/09/12 15:38:13;;;;;;;2.67;1.60;;;;;;;;;;5069576;28;20460;-83
2022/09/12 15:40:39;;;;;;;1.50;1.33;;;;;;;;;;5073430;28;20419;-84
2022/09/12 15:43:04;;;;;;;1.83;1.38;;;;;;;;;;5074916;28;20035;-84
2022/09/12 15:45:32;;;;;;;1.95;1.60;;;;;;;;;;5075623;28;20391;-84
2022/09/12 15:47:57;;;;;;;1.38;1.10;;;;;;;;;;5073817;28;20032;-83
2022/09/12 15:50:23;;;;;;;2.22;1.67;;;;;;;;;;5073096;28;20384;-82
2022/09/12 15:52:49;;;;;;;2.42;1.90;;;;;;;;;;5073295;28;20375;-83
2022/09/12 15:55:23;;;;;;;1.38;1.02;;;;;;;;;;5074714;28;20032;-82
2022/09/12 15:57:49;;;;;;;2.13;1.58;;;;;;;;;;5072764;28;20531;-82
2022/09/12 16:00:16;;;;;;;2.35;1.63;;;;;;;;;;5074892;28;20104;-82
2022/09/12 16:02:42;;;;;;;1.90;1.35;;;;;;;;;;5069114;28;20048;-83
2022/09/12 16:05:13;;;;;;;1.80;1.40;;;;;;;;;;5070084;28;20024;-83
2022/09/12 16:07:39;;;;;;;3.15;1.88;;;;;;;;;;5072739;28;20031;-84
2022/09/12 16:10:05;;;;;;;3.60;1.13;;;;;;;;;;5076198;28;20453;-81
2022/09/12 16:12:30;;;;;;;2.05;1.45;;;;;;;;;;5073972;28;20036;-81
2022/09/12 16:14:56;;;;;;;2.33;1.20;;;;;;;;;;5072924;28;20050;-84
2022/09/12 16:17:22;;;;;;;1.60;1.50;;;;;;;;;;5075712;28;20425;-83
2022/09/12 16:19:47;;;;;;;2.70;1.42;;;;;;;;;;5073806;28;20591;-83
2022/09/12 16:22:13;;;;;;;2.15;1.58;;;;;;;;;;5071804;28;20024;-83
2022/09/12 16:24:39;;;;;;;1.40;1.30;;;;;;;;;;5074378;28;20061;-86
2022/09/12 16:27:04;;;;;;;2.20;1.42;;;;;;;;;;5072625;28;20464;-83
2022/09/12 16:29:30;;;;;;;1.75;1.20;;;;;;;;;;5071537;28;20024;-81
2022/09/12 16:31:55;;;;;;;1.35;1.10;;;;;;;;;;5072688;28;20032;-85
2022/09/12 16:34:20;;;;;;;1.60;1.50;;;;;;;;;;5071032;28;20040;-84
2022/09/12 16:36:46;;;;;;;1.08;1.02;;;;;;;;;;5075236;28;20105;-82